sensor_id;sensor_type;location;lat;lon;timestamp;P1;durP1;ratioP1;P2;durP2;ratioP2
1204;SDS011;592;48.764;9.174;2024-03-02T00:00:43;9.20;;;4.97;;
1204;SDS011;592;48.764;9.174;2024-03-02T00:03:11;10.20;;;5.40;;
1204;SDS011;592;48.764;9.174;2024-03-02T00:05:39;7.83;;;4.70;;
1204;SDS011;592;48.764;9.174;2024-03-02T00:08:06;13.10;;;5.30;;
1204;SDS011;592;48.764;9.174;2024-03-02T00:10:35;10.43;;;5.40;;
1204;SDS011;592;48.764;9.174;2024-03-02T00:13:06;8.67;;;5.40;;
1204;SDS011;592;48.764;9.174;2024-03-02T00:15:44;7.80;;;5.10;;
1204;SDS011;592;48.764;9.174;2024-03-02T00:20:49;9.23;;;5.60;;
1204;SDS011;592;48.764;9.174;2024-03-02T00:23:20;14.70;;;5.70;;
1204;SDS011;592;48.764;9.174;2024-03-02T00:25:56;8.03;;;3.73;;
1204;SDS011;592;48.764;9.174;2024-03-02T00:28:27;7.93;;;5.30;;
1204;SDS011;592;48.764;9.174;2024-03-02T00:30:59;7.63;;;4.73;;
1204;SDS011;592;48.764;9.174;2024-03-02T00:33:30;10.13;;;5.60;;
1204;SDS011;592;48.764;9.174;2024-03-02T00:35:59;8.93;;;5.10;;
1204;SDS011;592;48.764;9.174;2024-03-02T00:38:28;9.80;;;4.53;;
1204;SDS011;592;48.764;9.174;2024-03-02T00:40:55;9.50;;;4.80;;
1204;SDS011;592;48.764;9.174;2024-03-02T00:43:45;7.10;;;4.37;;
1204;SDS011;592;48.764;9.174;2024-03-02T00:46:17;8.83;;;4.90;;
1204;SDS011;592;48.764;9.174;2024-03-02T00:48:48;9.73;;;4.47;;
1204;SDS011;592;48.764;9.174;2024-03-02T00:51:20;9.57;;;5.20;;
1204;SDS011;592;48.764;9.174;2024-03-02T00:53:48;10.57;;;5.20;;
1204;SDS011;592;48.764;9.174;2024-03-02T00:56:17;9.93;;;5.07;;
1204;SDS011;592;48.764;9.174;2024-03-02T00:58:45;7.20;;;4.37;;
1204;SDS011;592;48.764;9.174;2024-03-02T01:01:13;9.63;;;4.50;;
1204;SDS011;592;48.764;9.174;2024-03-02T01:03:41;10.60;;;5.23;;
1204;SDS011;592;48.764;9.174;2024-03-02T01:06:07;8.33;;;4.73;;
1204;SDS011;592;48.764;9.174;2024-03-02T01:08:35;8.43;;;5.20;;
1204;SDS011;592;48.764;9.174;2024-03-02T01:11:02;12.90;;;5.43;;
1204;SDS011;592;48.764;9.174;2024-03-02T01:13:28;7.87;;;4.90;;
1204;SDS011;592;48.764;9.174;2024-03-02T01:15:56;8.57;;;4.53;;
1204;SDS011;592;48.764;9.174;2024-03-02T01:18:24;7.47;;;4.40;;
1204;SDS011;592;48.764;9.174;2024-03-02T01:20:51;8.40;;;4.53;;
1204;SDS011;592;48.764;9.174;2024-03-02T01:23:20;7.80;;;4.47;;
1204;SDS011;592;48.764;9.174;2024-03-02T01:25:47;9.10;;;5.17;;
1204;SDS011;592;48.764;9.174;2024-03-02T01:28:15;7.27;;;4.60;;
1204;SDS011;592;48.764;9.174;2024-03-02T01:30:42;6.63;;;4.20;;
1204;SDS011;592;48.764;9.174;2024-03-02T01:33:10;11.40;;;4.80;;
1204;SDS011;592;48.764;9.174;2024-03-02T01:35:37;8.30;;;4.73;;
1204;SDS011;592;48.764;9.174;2024-03-02T01:38:04;9.13;;;5.17;;
1204;SDS011;592;48.764;9.174;2024-03-02T01:40:32;10.77;;;4.80;;
1204;SDS011;592;48.764;9.174;2024-03-02T01:42:59;8.00;;;5.27;;
1204;SDS011;592;48.764;9.174;2024-03-02T01:45:30;9.80;;;4.50;;
1204;SDS011;592;48.764;9.174;2024-03-02T01:47:57;12.10;;;4.13;;
1204;SDS011;592;48.764;9.174;2024-03-02T01:50:26;7.83;;;4.23;;
1204;SDS011;592;48.764;9.174;2024-03-02T01:52:54;7.63;;;4.60;;
1204;SDS011;592;48.764;9.174;2024-03-02T01:55:22;8.60;;;4.47;;
1204;SDS011;592;48.764;9.174;2024-03-02T01:57:49;8.87;;;5.20;;
1204;SDS011;592;48.764;9.174;2024-03-02T02:00:17;6.73;;;4.60;;
1204;SDS011;592;48.764;9.174;2024-03-02T02:02:44;10.63;;;5.23;;
1204;SDS011;592;48.764;9.174;2024-03-02T02:05:11;8.30;;;4.50;;
1204;SDS011;592;48.764;9.174;2024-03-02T02:07:41;9.60;;;4.73;;
1204;SDS011;592;48.764;9.174;2024-03-02T02:10:08;11.40;;;5.50;;
1204;SDS011;592;48.764;9.174;2024-03-02T02:12:36;11.77;;;5.33;;
1204;SDS011;592;48.764;9.174;2024-03-02T02:15:03;12.23;;;4.90;;
1204;SDS011;592;48.764;9.174;2024-03-02T02:17:31;10.50;;;4.90;;
1204;SDS011;592;48.764;9.174;2024-03-02T02:19:57;9.80;;;4.60;;
1204;SDS011;592;48.764;9.174;2024-03-02T02:22:26;8.97;;;4.67;;
1204;SDS011;592;48.764;9.174;2024-03-02T02:24:52;8.70;;;4.60;;
1204;SDS011;592;48.764;9.174;2024-03-02T02:27:19;14.90;;;5.60;;
1204;SDS011;592;48.764;9.174;2024-03-02T02:29:47;9.80;;;4.57;;
1204;SDS011;592;48.764;9.174;2024-03-02T02:32:13;9.90;;;5.27;;
1204;SDS011;592;48.764;9.174;2024-03-02T02:34:40;9.37;;;4.70;;
1204;SDS011;592;48.764;9.174;2024-03-02T02:37:07;9.03;;;5.33;;
1204;SDS011;592;48.764;9.174;2024-03-02T02:39:35;9.93;;;4.47;;
1204;SDS011;592;48.764;9.174;2024-03-02T02:42:02;12.70;;;5.37;;
1204;SDS011;592;48.764;9.174;2024-03-02T02:44:29;11.03;;;5.00;;
1204;SDS011;592;48.764;9.174;2024-03-02T02:46:56;8.43;;;4.60;;
1204;SDS011;592;48.764;9.174;2024-03-02T02:49:23;9.33;;;5.10;;
1204;SDS011;592;48.764;9.174;2024-03-02T02:51:50;7.27;;;4.60;;
1204;SDS011;592;48.764;9.174;2024-03-02T02:54:17;13.30;;;5.33;;
1204;SDS011;592;48.764;9.174;2024-03-02T02:56:45;7.30;;;4.70;;
1204;SDS011;592;48.764;9.174;2024-03-02T02:59:11;7.07;;;4.13;;
1204;SDS011;592;48.764;9.174;2024-03-02T03:01:38;9.67;;;5.40;;
1204;SDS011;592;48.764;9.174;2024-03-02T03:04:05;8.57;;;4.93;;
1204;SDS011;592;48.764;9.174;2024-03-02T03:06:31;8.53;;;4.90;;
1204;SDS011;592;48.764;9.174;2024-03-02T03:08:58;6.90;;;4.30;;
1204;SDS011;592;48.764;9.174;2024-03-02T03:11:25;12.03;;;5.00;;
1204;SDS011;592;48.764;9.174;2024-03-02T03:13:53;9.13;;;5.17;;
1204;SDS011;592;48.764;9.174;2024-03-02T03:16:20;13.87;;;6.30;;
1204;SDS011;592;48.764;9.174;2024-03-02T03:18:47;8.57;;;5.67;;
1204;SDS011;592;48.764;9.174;2024-03-02T03:21:16;10.40;;;4.90;;
1204;SDS011;592;48.764;9.174;2024-03-02T03:23:43;11.73;;;5.50;;
1204;SDS011;592;48.764;9.174;2024-03-02T03:26:09;11.13;;;5.20;;
1204;SDS011;592;48.764;9.174;2024-03-02T03:28:36;7.00;;;4.33;;
1204;SDS011;592;48.764;9.174;2024-03-02T03:31:05;7.80;;;4.40;;
1204;SDS011;592;48.764;9.174;2024-03-02T03:33:32;10.57;;;5.37;;
1204;SDS011;592;48.764;9.174;2024-03-02T03:35:59;8.70;;;4.50;;
1204;SDS011;592;48.764;9.174;2024-03-02T03:38:26;14.80;;;4.50;;
1204;SDS011;592;48.764;9.174;2024-03-02T03:40:52;10.83;;;5.70;;
1204;SDS011;592;48.764;9.174;2024-03-02T03:43:20;7.70;;;4.57;;
1204;SDS011;592;48.764;9.174;2024-03-02T03:45:46;9.60;;;4.67;;
1204;SDS011;592;48.764;9.174;2024-03-02T03:48:15;9.57;;;5.37;;
1204;SDS011;592;48.764;9.174;2024-03-02T03:50:41;10.33;;;5.47;;
1204;SDS011;592;48.764;9.174;2024-03-02T03:53:08;12.27;;;5.60;;
1204;SDS011;592;48.764;9.174;2024-03-02T03:55:35;11.90;;;5.07;;
1204;SDS011;592;48.764;9.174;2024-03-02T03:58:01;6.87;;;4.00;;
1204;SDS011;592;48.764;9.174;2024-03-02T04:00:28;7.17;;;4.03;;
1204;SDS011;592;48.764;9.174;2024-03-02T04:02:55;8.87;;;5.10;;
1204;SDS011;592;48.764;9.174;2024-03-02T04:05:23;7.47;;;4.90;;
1204;SDS011;592;48.764;9.174;2024-03-02T04:07:49;10.47;;;4.87;;
1204;SDS011;592;48.764;9.174;2024-03-02T04:10:16;7.70;;;4.37;;
1204;SDS011;592;48.764;9.174;2024-03-02T04:12:43;9.80;;;5.03;;
1204;SDS011;592;48.764;9.174;2024-03-02T04:15:09;9.40;;;4.90;;
1204;SDS011;592;48.764;9.174;2024-03-02T04:17:36;11.10;;;5.60;;
1204;SDS011;592;48.764;9.174;2024-03-02T04:20:03;9.30;;;4.60;;
1204;SDS011;592;48.764;9.174;2024-03-02T04:22:34;11.53;;;5.80;;
1204;SDS011;592;48.764;9.174;2024-03-02T04:25:01;10.90;;;5.33;;
1204;SDS011;592;48.764;9.174;2024-03-02T04:27:29;9.10;;;5.27;;
1204;SDS011;592;48.764;9.174;2024-03-02T04:29:57;6.63;;;4.40;;
1204;SDS011;592;48.764;9.174;2024-03-02T04:32:25;9.80;;;5.20;;
1204;SDS011;592;48.764;9.174;2024-03-02T04:34:52;8.73;;;5.27;;
1204;SDS011;592;48.764;9.174;2024-03-02T04:37:19;10.40;;;5.30;;
1204;SDS011;592;48.764;9.174;2024-03-02T04:39:47;9.10;;;5.10;;
1204;SDS011;592;48.764;9.174;2024-03-02T04:42:14;8.40;;;4.67;;
1204;SDS011;592;48.764;9.174;2024-03-02T04:44:41;11.60;;;5.73;;
1204;SDS011;592;48.764;9.174;2024-03-02T04:47:08;10.17;;;5.50;;
1204;SDS011;592;48.764;9.174;2024-03-02T04:49:34;9.87;;;4.67;;
1204;SDS011;592;48.764;9.174;2024-03-02T04:52:01;10.03;;;5.20;;
1204;SDS011;592;48.764;9.174;2024-03-02T04:54:28;7.00;;;5.20;;
1204;SDS011;592;48.764;9.174;2024-03-02T04:56:56;9.27;;;4.63;;
1204;SDS011;592;48.764;9.174;2024-03-02T04:59:23;11.00;;;5.80;;
1204;SDS011;592;48.764;9.174;2024-03-02T05:01:50;8.43;;;5.27;;
1204;SDS011;592;48.764;9.174;2024-03-02T05:04:16;9.77;;;5.27;;
1204;SDS011;592;48.764;9.174;2024-03-02T05:06:43;8.97;;;5.00;;
1204;SDS011;592;48.764;9.174;2024-03-02T05:09:15;10.00;;;5.83;;
1204;SDS011;592;48.764;9.174;2024-03-02T05:11:42;8.93;;;4.80;;
1204;SDS011;592;48.764;9.174;2024-03-02T05:14:25;10.47;;;5.40;;
1204;SDS011;592;48.764;9.174;2024-03-02T05:16:52;10.30;;;5.70;;
1204;SDS011;592;48.764;9.174;2024-03-02T05:19:19;13.50;;;6.40;;
1204;SDS011;592;48.764;9.174;2024-03-02T05:21:46;18.13;;;6.07;;
1204;SDS011;592;48.764;9.174;2024-03-02T05:24:13;13.17;;;6.17;;
1204;SDS011;592;48.764;9.174;2024-03-02T05:26:40;12.73;;;6.67;;
1204;SDS011;592;48.764;9.174;2024-03-02T05:29:07;13.80;;;6.03;;
1204;SDS011;592;48.764;9.174;2024-03-02T05:31:35;12.67;;;5.97;;
1204;SDS011;592;48.764;9.174;2024-03-02T05:34:01;11.83;;;6.23;;
1204;SDS011;592;48.764;9.174;2024-03-02T05:36:30;9.60;;;5.50;;
1204;SDS011;592;48.764;9.174;2024-03-02T05:38:57;12.17;;;6.30;;
1204;SDS011;592;48.764;9.174;2024-03-02T05:41:23;9.53;;;5.53;;
1204;SDS011;592;48.764;9.174;2024-03-02T05:43:50;14.60;;;7.53;;
1204;SDS011;592;48.764;9.174;2024-03-02T05:46:17;10.40;;;6.43;;
1204;SDS011;592;48.764;9.174;2024-03-02T05:48:45;10.67;;;5.93;;
1204;SDS011;592;48.764;9.174;2024-03-02T05:51:14;10.77;;;5.47;;
1204;SDS011;592;48.764;9.174;2024-03-02T05:53:41;11.33;;;5.70;;
1204;SDS011;592;48.764;9.174;2024-03-02T05:56:10;13.50;;;6.60;;
1204;SDS011;592;48.764;9.174;2024-03-02T05:58:40;11.37;;;5.83;;
1204;SDS011;592;48.764;9.174;2024-03-02T06:01:22;10.10;;;5.77;;
1204;SDS011;592;48.764;9.174;2024-03-02T06:03:54;14.60;;;6.33;;
1204;SDS011;592;48.764;9.174;2024-03-02T06:06:24;17.00;;;7.90;;
1204;SDS011;592;48.764;9.174;2024-03-02T06:08:51;10.77;;;6.47;;
1204;SDS011;592;48.764;9.174;2024-03-02T06:11:20;10.10;;;6.87;;
1204;SDS011;592;48.764;9.174;2024-03-02T06:13:47;10.47;;;6.40;;
1204;SDS011;592;48.764;9.174;2024-03-02T06:16:13;11.47;;;6.30;;
1204;SDS011;592;48.764;9.174;2024-03-02T06:18:40;12.17;;;5.80;;
1204;SDS011;592;48.764;9.174;2024-03-02T06:21:08;12.43;;;5.40;;
1204;SDS011;592;48.764;9.174;2024-03-02T06:23:35;11.93;;;5.77;;
1204;SDS011;592;48.764;9.174;2024-03-02T06:26:04;11.70;;;6.43;;
1204;SDS011;592;48.764;9.174;2024-03-02T06:28:30;10.83;;;5.10;;
1204;SDS011;592;48.764;9.174;2024-03-02T06:30:57;10.40;;;5.90;;
1204;SDS011;592;48.764;9.174;2024-03-02T06:33:24;8.80;;;5.07;;
1204;SDS011;592;48.764;9.174;2024-03-02T06:35:51;9.90;;;5.93;;
1204;SDS011;592;48.764;9.174;2024-03-02T06:38:19;11.73;;;5.50;;
1204;SDS011;592;48.764;9.174;2024-03-02T06:40:46;14.83;;;6.03;;
1204;SDS011;592;48.764;9.174;2024-03-02T06:43:15;8.00;;;4.70;;
1204;SDS011;592;48.764;9.174;2024-03-02T06:45:42;11.73;;;6.27;;
1204;SDS011;592;48.764;9.174;2024-03-02T06:48:10;8.40;;;5.00;;
1204;SDS011;592;48.764;9.174;2024-03-02T06:50:37;13.10;;;6.70;;
1204;SDS011;592;48.764;9.174;2024-03-02T06:53:04;10.87;;;5.50;;
1204;SDS011;592;48.764;9.174;2024-03-02T06:55:32;10.30;;;5.00;;
1204;SDS011;592;48.764;9.174;2024-03-02T06:57:59;8.33;;;4.87;;
1204;SDS011;592;48.764;9.174;2024-03-02T07:00:26;9.97;;;5.60;;
1204;SDS011;592;48.764;9.174;2024-03-02T07:02:53;11.10;;;5.47;;
1204;SDS011;592;48.764;9.174;2024-03-02T07:05:19;10.73;;;5.67;;
1204;SDS011;592;48.764;9.174;2024-03-02T07:07:47;11.67;;;5.90;;
1204;SDS011;592;48.764;9.174;2024-03-02T07:10:13;8.60;;;4.73;;
1204;SDS011;592;48.764;9.174;2024-03-02T07:12:42;7.07;;;4.03;;
1204;SDS011;592;48.764;9.174;2024-03-02T07:15:09;10.10;;;4.60;;
1204;SDS011;592;48.764;9.174;2024-03-02T07:18:08;8.77;;;4.97;;
1204;SDS011;592;48.764;9.174;2024-03-02T07:20:35;10.23;;;4.37;;
1204;SDS011;592;48.764;9.174;2024-03-02T07:23:03;9.30;;;5.07;;
1204;SDS011;592;48.764;9.174;2024-03-02T07:25:30;10.67;;;5.40;;
1204;SDS011;592;48.764;9.174;2024-03-02T07:28:02;12.50;;;5.67;;
1204;SDS011;592;48.764;9.174;2024-03-02T07:30:29;10.27;;;5.27;;
1204;SDS011;592;48.764;9.174;2024-03-02T07:32:56;8.87;;;4.53;;
1204;SDS011;592;48.764;9.174;2024-03-02T07:35:24;9.00;;;5.37;;
1204;SDS011;592;48.764;9.174;2024-03-02T07:37:52;14.90;;;6.27;;
1204;SDS011;592;48.764;9.174;2024-03-02T07:40:19;8.00;;;4.47;;
1204;SDS011;592;48.764;9.174;2024-03-02T07:42:46;8.80;;;4.90;;
1204;SDS011;592;48.764;9.174;2024-03-02T07:45:14;10.43;;;4.90;;
1204;SDS011;592;48.764;9.174;2024-03-02T07:47:41;8.53;;;4.33;;
1204;SDS011;592;48.764;9.174;2024-03-02T07:50:08;7.83;;;4.50;;
1204;SDS011;592;48.764;9.174;2024-03-02T07:52:35;9.80;;;4.70;;
1204;SDS011;592;48.764;9.174;2024-03-02T07:55:01;14.90;;;4.57;;
1204;SDS011;592;48.764;9.174;2024-03-02T07:57:28;8.30;;;4.27;;
1204;SDS011;592;48.764;9.174;2024-03-02T07:59:55;9.10;;;4.33;;
1204;SDS011;592;48.764;9.174;2024-03-02T08:02:25;9.07;;;4.60;;
1204;SDS011;592;48.764;9.174;2024-03-02T08:04:52;7.57;;;4.50;;
1204;SDS011;592;48.764;9.174;2024-03-02T08:07:19;10.63;;;4.57;;
1204;SDS011;592;48.764;9.174;2024-03-02T08:09:46;7.97;;;4.60;;
1204;SDS011;592;48.764;9.174;2024-03-02T08:12:12;9.27;;;4.93;;
1204;SDS011;592;48.764;9.174;2024-03-02T08:14:39;8.47;;;4.40;;
1204;SDS011;592;48.764;9.174;2024-03-02T08:17:06;8.37;;;4.90;;
1204;SDS011;592;48.764;9.174;2024-03-02T08:19:36;11.80;;;5.77;;
1204;SDS011;592;48.764;9.174;2024-03-02T08:22:03;7.67;;;4.47;;
1204;SDS011;592;48.764;9.174;2024-03-02T08:24:29;9.93;;;6.10;;
1204;SDS011;592;48.764;9.174;2024-03-02T08:26:56;7.33;;;4.20;;
1204;SDS011;592;48.764;9.174;2024-03-02T08:29:24;7.93;;;4.90;;
1204;SDS011;592;48.764;9.174;2024-03-02T08:31:51;8.00;;;4.00;;
1204;SDS011;592;48.764;9.174;2024-03-02T08:34:18;10.07;;;3.90;;
1204;SDS011;592;48.764;9.174;2024-03-02T08:36:46;6.80;;;3.97;;
1204;SDS011;592;48.764;9.174;2024-03-02T08:39:12;8.10;;;4.23;;
1204;SDS011;592;48.764;9.174;2024-03-02T08:41:40;7.50;;;3.67;;
1204;SDS011;592;48.764;9.174;2024-03-02T08:44:07;9.00;;;4.50;;
1204;SDS011;592;48.764;9.174;2024-03-02T08:46:33;6.80;;;3.97;;
1204;SDS011;592;48.764;9.174;2024-03-02T08:49:00;6.83;;;3.77;;
1204;SDS011;592;48.764;9.174;2024-03-02T08:51:27;8.00;;;5.03;;
1204;SDS011;592;48.764;9.174;2024-03-02T08:53:55;5.63;;;3.17;;
1204;SDS011;592;48.764;9.174;2024-03-02T08:56:22;7.37;;;3.93;;
1204;SDS011;592;48.764;9.174;2024-03-02T08:58:49;7.33;;;4.70;;
1204;SDS011;592;48.764;9.174;2024-03-02T09:01:16;7.80;;;4.27;;
1204;SDS011;592;48.764;9.174;2024-03-02T09:03:44;7.13;;;4.00;;
1204;SDS011;592;48.764;9.174;2024-03-02T09:06:11;7.40;;;3.90;;
1204;SDS011;592;48.764;9.174;2024-03-02T09:08:38;8.23;;;3.97;;
1204;SDS011;592;48.764;9.174;2024-03-02T09:11:07;9.27;;;4.27;;
1204;SDS011;592;48.764;9.174;2024-03-02T09:13:33;7.70;;;4.07;;
1204;SDS011;592;48.764;9.174;2024-03-02T09:16:00;6.80;;;4.10;;
1204;SDS011;592;48.764;9.174;2024-03-02T09:18:27;8.90;;;3.97;;
1204;SDS011;592;48.764;9.174;2024-03-02T09:20:54;7.53;;;3.60;;
1204;SDS011;592;48.764;9.174;2024-03-02T09:23:21;7.43;;;3.80;;
1204;SDS011;592;48.764;9.174;2024-03-02T09:25:48;7.83;;;3.33;;
1204;SDS011;592;48.764;9.174;2024-03-02T09:28:16;5.40;;;3.20;;
1204;SDS011;592;48.764;9.174;2024-03-02T09:30:43;6.10;;;3.70;;
1204;SDS011;592;48.764;9.174;2024-03-02T09:33:10;6.13;;;3.33;;
1204;SDS011;592;48.764;9.174;2024-03-02T09:35:37;6.40;;;3.30;;
1204;SDS011;592;48.764;9.174;2024-03-02T09:38:03;8.30;;;3.83;;
1204;SDS011;592;48.764;9.174;2024-03-02T09:40:34;7.60;;;4.30;;
1204;SDS011;592;48.764;9.174;2024-03-02T09:43:02;7.83;;;3.97;;
1204;SDS011;592;48.764;9.174;2024-03-02T09:45:53;6.30;;;3.80;;
1204;SDS011;592;48.764;9.174;2024-03-02T09:48:19;9.20;;;3.97;;
1204;SDS011;592;48.764;9.174;2024-03-02T09:50:46;5.83;;;3.20;;
1204;SDS011;592;48.764;9.174;2024-03-02T09:53:13;5.30;;;3.13;;
1204;SDS011;592;48.764;9.174;2024-03-02T09:55:42;8.43;;;3.80;;
1204;SDS011;592;48.764;9.174;2024-03-02T09:58:12;5.80;;;3.40;;
1204;SDS011;592;48.764;9.174;2024-03-02T10:00:39;6.30;;;3.07;;
1204;SDS011;592;48.764;9.174;2024-03-02T10:03:08;5.60;;;3.90;;
1204;SDS011;592;48.764;9.174;2024-03-02T10:05:37;6.60;;;3.53;;
1204;SDS011;592;48.764;9.174;2024-03-02T10:08:06;7.37;;;3.17;;
1204;SDS011;592;48.764;9.174;2024-03-02T10:10:36;6.67;;;3.70;;
1204;SDS011;592;48.764;9.174;2024-03-02T10:13:05;5.07;;;3.00;;
1204;SDS011;592;48.764;9.174;2024-03-02T10:15:33;5.50;;;2.97;;
1204;SDS011;592;48.764;9.174;2024-03-02T10:18:01;4.60;;;2.37;;
1204;SDS011;592;48.764;9.174;2024-03-02T10:20:30;3.50;;;2.20;;
1204;SDS011;592;48.764;9.174;2024-03-02T10:23:00;4.87;;;2.20;;
1204;SDS011;592;48.764;9.174;2024-03-02T10:25:36;4.50;;;2.53;;
1204;SDS011;592;48.764;9.174;2024-03-02T10:28:03;8.17;;;3.40;;
1204;SDS011;592;48.764;9.174;2024-03-02T10:30:31;6.27;;;3.07;;
1204;SDS011;592;48.764;9.174;2024-03-02T10:32:58;4.70;;;2.57;;
1204;SDS011;592;48.764;9.174;2024-03-02T10:35:26;5.60;;;2.93;;
1204;SDS011;592;48.764;9.174;2024-03-02T10:37:54;5.20;;;2.93;;
1204;SDS011;592;48.764;9.174;2024-03-02T10:40:21;5.30;;;2.70;;
1204;SDS011;592;48.764;9.174;2024-03-02T10:42:49;4.33;;;2.87;;
1204;SDS011;592;48.764;9.174;2024-03-02T10:45:17;9.90;;;3.37;;
1204;SDS011;592;48.764;9.174;2024-03-02T10:47:47;6.17;;;2.70;;
1204;SDS011;592;48.764;9.174;2024-03-02T10:50:14;5.33;;;3.23;;
1204;SDS011;592;48.764;9.174;2024-03-02T10:52:40;5.90;;;3.17;;
1204;SDS011;592;48.764;9.174;2024-03-02T10:55:09;4.27;;;2.30;;
1204;SDS011;592;48.764;9.174;2024-03-02T10:57:40;4.83;;;2.80;;
1204;SDS011;592;48.764;9.174;2024-03-02T11:00:11;5.60;;;3.40;;
1204;SDS011;592;48.764;9.174;2024-03-02T11:02:42;5.57;;;2.87;;
1204;SDS011;592;48.764;9.174;2024-03-02T11:05:16;5.50;;;3.20;;
1204;SDS011;592;48.764;9.174;2024-03-02T11:07:52;7.47;;;3.03;;
1204;SDS011;592;48.764;9.174;2024-03-02T11:10:24;5.80;;;3.40;;
1204;SDS011;592;48.764;9.174;2024-03-02T11:12:59;4.80;;;3.13;;
1204;SDS011;592;48.764;9.174;2024-03-02T11:15:30;6.80;;;3.00;;
1204;SDS011;592;48.764;9.174;2024-03-02T11:17:56;4.40;;;2.40;;
1204;SDS011;592;48.764;9.174;2024-03-02T11:20:34;4.20;;;2.27;;
1204;SDS011;592;48.764;9.174;2024-03-02T11:23:09;9.90;;;1.57;;
1204;SDS011;592;48.764;9.174;2024-03-02T11:25:37;4.43;;;2.20;;
1204;SDS011;592;48.764;9.174;2024-03-02T11:28:06;6.00;;;2.17;;
1204;SDS011;592;48.764;9.174;2024-03-02T11:30:52;3.23;;;1.40;;
1204;SDS011;592;48.764;9.174;2024-03-02T11:33:26;3.07;;;1.23;;
1204;SDS011;592;48.764;9.174;2024-03-02T11:35:57;2.37;;;0.87;;
1204;SDS011;592;48.764;9.174;2024-03-02T11:38:32;2.20;;;0.80;;
1204;SDS011;592;48.764;9.174;2024-03-02T11:46:38;2.60;;;0.90;;
1204;SDS011;592;48.764;9.174;2024-03-02T11:49:06;2.30;;;0.80;;
1204;SDS011;592;48.764;9.174;2024-03-02T11:51:34;3.40;;;1.20;;
1204;SDS011;592;48.764;9.174;2024-03-02T11:54:01;2.60;;;0.90;;
1204;SDS011;592;48.764;9.174;2024-03-02T11:56:30;3.73;;;1.20;;
1204;SDS011;592;48.764;9.174;2024-03-02T11:58:57;2.70;;;0.80;;
1204;SDS011;592;48.764;9.174;2024-03-02T12:01:24;2.83;;;1.27;;
1204;SDS011;592;48.764;9.174;2024-03-02T12:03:52;2.00;;;0.70;;
1204;SDS011;592;48.764;9.174;2024-03-02T12:06:20;2.20;;;0.70;;
1204;SDS011;592;48.764;9.174;2024-03-02T12:08:52;2.10;;;0.70;;
1204;SDS011;592;48.764;9.174;2024-03-02T12:11:19;3.50;;;0.90;;
1204;SDS011;592;48.764;9.174;2024-03-02T12:13:54;3.90;;;1.00;;
1204;SDS011;592;48.764;9.174;2024-03-02T12:21:48;5.40;;;1.10;;
1204;SDS011;592;48.764;9.174;2024-03-02T12:24:15;2.50;;;1.10;;
1204;SDS011;592;48.764;9.174;2024-03-02T12:26:42;3.73;;;1.17;;
1204;SDS011;592;48.764;9.174;2024-03-02T12:29:09;4.40;;;1.60;;
1204;SDS011;592;48.764;9.174;2024-03-02T12:31:36;3.70;;;1.50;;
1204;SDS011;592;48.764;9.174;2024-03-02T12:34:03;3.00;;;1.33;;
1204;SDS011;592;48.764;9.174;2024-03-02T12:36:30;2.33;;;1.00;;
1204;SDS011;592;48.764;9.174;2024-03-02T12:39:04;2.50;;;1.03;;
1204;SDS011;592;48.764;9.174;2024-03-02T12:41:31;5.40;;;1.37;;
1204;SDS011;592;48.764;9.174;2024-03-02T12:43:57;2.60;;;1.10;;
1204;SDS011;592;48.764;9.174;2024-03-02T12:46:24;3.23;;;1.10;;
1204;SDS011;592;48.764;9.174;2024-03-02T12:48:51;3.03;;;1.30;;
1204;SDS011;592;48.764;9.174;2024-03-02T12:51:18;2.70;;;1.10;;
1204;SDS011;592;48.764;9.174;2024-03-02T12:53:45;2.47;;;1.20;;
1204;SDS011;592;48.764;9.174;2024-03-02T12:56:13;2.77;;;1.27;;
1204;SDS011;592;48.764;9.174;2024-03-02T12:58:40;2.67;;;1.20;;
1204;SDS011;592;48.764;9.174;2024-03-02T13:01:07;3.17;;;1.43;;
1204;SDS011;592;48.764;9.174;2024-03-02T13:03:36;2.60;;;1.20;;
1204;SDS011;592;48.764;9.174;2024-03-02T13:06:04;5.67;;;1.60;;
1204;SDS011;592;48.764;9.174;2024-03-02T13:08:31;3.27;;;1.43;;
1204;SDS011;592;48.764;9.174;2024-03-02T13:10:58;3.73;;;1.53;;
1204;SDS011;592;48.764;9.174;2024-03-02T13:13:26;5.10;;;1.90;;
1204;SDS011;592;48.764;9.174;2024-03-02T13:15:56;2.90;;;1.40;;
1204;SDS011;592;48.764;9.174;2024-03-02T13:18:24;3.37;;;1.33;;
1204;SDS011;592;48.764;9.174;2024-03-02T13:20:51;2.87;;;1.13;;
1204;SDS011;592;48.764;9.174;2024-03-02T13:23:18;3.30;;;1.30;;
1204;SDS011;592;48.764;9.174;2024-03-02T13:25:45;3.70;;;1.73;;
1204;SDS011;592;48.764;9.174;2024-03-02T13:28:12;2.67;;;1.20;;
1204;SDS011;592;48.764;9.174;2024-03-02T13:30:43;2.63;;;1.30;;
1204;SDS011;592;48.764;9.174;2024-03-02T13:33:09;3.73;;;1.30;;
1204;SDS011;592;48.764;9.174;2024-03-02T13:35:36;3.97;;;1.47;;
1204;SDS011;592;48.764;9.174;2024-03-02T13:38:03;3.27;;;1.40;;
1204;SDS011;592;48.764;9.174;2024-03-02T13:40:30;3.00;;;1.30;;
1204;SDS011;592;48.764;9.174;2024-03-02T13:43:02;2.50;;;1.00;;
1204;SDS011;592;48.764;9.174;2024-03-02T13:45:29;3.93;;;1.70;;
1204;SDS011;592;48.764;9.174;2024-03-02T13:47:59;2.90;;;1.33;;
1204;SDS011;592;48.764;9.174;2024-03-02T13:50:26;2.70;;;1.10;;
1204;SDS011;592;48.764;9.174;2024-03-02T13:52:54;5.07;;;1.70;;
1204;SDS011;592;48.764;9.174;2024-03-02T13:55:21;3.83;;;1.40;;
1204;SDS011;592;48.764;9.174;2024-03-02T13:57:48;2.57;;;1.17;;
1204;SDS011;592;48.764;9.174;2024-03-02T14:00:15;2.93;;;1.30;;
1204;SDS011;592;48.764;9.174;2024-03-02T14:02:48;3.07;;;1.20;;
1204;SDS011;592;48.764;9.174;2024-03-02T14:05:33;2.90;;;1.27;;
1204;SDS011;592;48.764;9.174;2024-03-02T14:08:00;6.13;;;3.33;;
1204;SDS011;592;48.764;9.174;2024-03-02T14:10:26;3.43;;;1.70;;
1204;SDS011;592;48.764;9.174;2024-03-02T14:12:54;3.53;;;1.57;;
1204;SDS011;592;48.764;9.174;2024-03-02T14:15:21;2.70;;;1.20;;
1204;SDS011;592;48.764;9.174;2024-03-02T14:17:48;2.40;;;1.00;;
1204;SDS011;592;48.764;9.174;2024-03-02T14:20:15;3.20;;;1.47;;
1204;SDS011;592;48.764;9.174;2024-03-02T14:22:48;2.87;;;1.20;;
1204;SDS011;592;48.764;9.174;2024-03-02T14:25:15;3.20;;;1.43;;
1204;SDS011;592;48.764;9.174;2024-03-02T14:27:42;2.47;;;0.97;;
1204;SDS011;592;48.764;9.174;2024-03-02T14:30:09;4.00;;;1.00;;
1204;SDS011;592;48.764;9.174;2024-03-02T14:32:37;3.10;;;1.40;;
1204;SDS011;592;48.764;9.174;2024-03-02T14:35:04;2.80;;;1.20;;
1204;SDS011;592;48.764;9.174;2024-03-02T14:37:31;3.47;;;1.30;;
1204;SDS011;592;48.764;9.174;2024-03-02T14:39:59;6.13;;;1.27;;
1204;SDS011;592;48.764;9.174;2024-03-02T14:42:26;3.00;;;1.40;;
1204;SDS011;592;48.764;9.174;2024-03-02T14:44:56;3.30;;;1.13;;
1204;SDS011;592;48.764;9.174;2024-03-02T14:47:23;2.97;;;0.97;;
1204;SDS011;592;48.764;9.174;2024-03-02T14:49:50;2.83;;;1.10;;
1204;SDS011;592;48.764;9.174;2024-03-02T14:52:16;4.83;;;1.30;;
1204;SDS011;592;48.764;9.174;2024-03-02T14:54:43;3.00;;;1.27;;
1204;SDS011;592;48.764;9.174;2024-03-02T14:57:13;2.47;;;1.07;;
1204;SDS011;592;48.764;9.174;2024-03-02T14:59:39;2.90;;;1.00;;
1204;SDS011;592;48.764;9.174;2024-03-02T15:02:07;2.63;;;1.17;;
1204;SDS011;592;48.764;9.174;2024-03-02T15:04:34;2.17;;;0.90;;
1204;SDS011;592;48.764;9.174;2024-03-02T15:07:01;2.63;;;1.00;;
1204;SDS011;592;48.764;9.174;2024-03-02T15:09:28;2.97;;;1.23;;
1204;SDS011;592;48.764;9.174;2024-03-02T15:11:55;2.53;;;1.13;;
1204;SDS011;592;48.764;9.174;2024-03-02T15:14:23;2.67;;;1.27;;
1204;SDS011;592;48.764;9.174;2024-03-02T15:16:50;3.00;;;1.20;;
1204;SDS011;592;48.764;9.174;2024-03-02T15:19:17;2.87;;;1.00;;
1204;SDS011;592;48.764;9.174;2024-03-02T15:21:43;2.70;;;1.17;;
1204;SDS011;592;48.764;9.174;2024-03-02T15:24:11;2.33;;;1.00;;
1204;SDS011;592;48.764;9.174;2024-03-02T15:26:37;2.30;;;0.90;;
1204;SDS011;592;48.764;9.174;2024-03-02T15:29:04;2.70;;;0.97;;
1204;SDS011;592;48.764;9.174;2024-03-02T15:31:32;2.80;;;1.20;;
1204;SDS011;592;48.764;9.174;2024-03-02T15:33:59;2.87;;;1.13;;
1204;SDS011;592;48.764;9.174;2024-03-02T15:36:28;2.70;;;1.20;;
1204;SDS011;592;48.764;9.174;2024-03-02T15:38:55;3.50;;;1.30;;
1204;SDS011;592;48.764;9.174;2024-03-02T15:41:22;3.07;;;1.60;;
1204;SDS011;592;48.764;9.174;2024-03-02T15:43:48;3.80;;;1.67;;
1204;SDS011;592;48.764;9.174;2024-03-02T15:46:15;2.87;;;1.10;;